sensor_id;sensor_type;location;lat;lon;timestamp;P1;durP1;ratioP1;P2;durP2;ratioP2
74415;SDS011;62850;42.428;25.618;2023-05-07T00:02:02;9.40;;;4.50;;
74415;SDS011;62850;42.428;25.618;2023-05-07T00:04:28;6.75;;;4.38;;
74415;SDS011;62850;42.428;25.618;2023-05-07T00:07:01;14.10;;;5.10;;
74415;SDS011;62850;42.428;25.618;2023-05-07T00:09:27;10.32;;;5.57;;
74415;SDS011;62850;42.428;25.618;2023-05-07T00:11:53;9.75;;;5.63;;
74415;SDS011;62850;42.428;25.618;2023-05-07T00:14:19;11.25;;;6.78;;
74415;SDS011;62850;42.428;25.618;2023-05-07T00:16:45;11.15;;;6.70;;
74415;SDS011;62850;42.428;25.618;2023-05-07T00:19:12;12.18;;;6.65;;
74415;SDS011;62850;42.428;25.618;2023-05-07T00:21:38;12.15;;;7.32;;
74415;SDS011;62850;42.428;25.618;2023-05-07T00:24:04;17.40;;;7.88;;
74415;SDS011;62850;42.428;25.618;2023-05-07T00:26:29;12.15;;;6.85;;
74415;SDS011;62850;42.428;25.618;2023-05-07T00:28:57;8.60;;;5.55;;
74415;SDS011;62850;42.428;25.618;2023-05-07T00:31:23;9.32;;;5.38;;
74415;SDS011;62850;42.428;25.618;2023-05-07T00:33:48;10.52;;;5.80;;
74415;SDS011;62850;42.428;25.618;2023-05-07T00:36:15;7.40;;;4.20;;
74415;SDS011;62850;42.428;25.618;2023-05-07T00:38:41;7.70;;;4.63;;
74415;SDS011;62850;42.428;25.618;2023-05-07T00:41:08;7.43;;;4.60;;
74415;SDS011;62850;42.428;25.618;2023-05-07T00:43:34;6.28;;;4.10;;
74415;SDS011;62850;42.428;25.618;2023-05-07T00:46:00;6.03;;;3.75;;
74415;SDS011;62850;42.428;25.618;2023-05-07T00:48:27;7.82;;;3.50;;
74415;SDS011;62850;42.428;25.618;2023-05-07T00:50:54;5.95;;;3.83;;
74415;SDS011;62850;42.428;25.618;2023-05-07T00:53:20;8.65;;;3.90;;
74415;SDS011;62850;42.428;25.618;2023-05-07T00:55:46;8.85;;;4.32;;
74415;SDS011;62850;42.428;25.618;2023-05-07T00:58:12;6.85;;;4.00;;
74415;SDS011;62850;42.428;25.618;2023-05-07T01:00:40;9.75;;;4.10;;
74415;SDS011;62850;42.428;25.618;2023-05-07T01:03:07;8.20;;;3.63;;
74415;SDS011;62850;42.428;25.618;2023-05-07T01:05:33;7.63;;;3.45;;
74415;SDS011;62850;42.428;25.618;2023-05-07T01:07:59;7.45;;;3.55;;
74415;SDS011;62850;42.428;25.618;2023-05-07T01:10:27;6.60;;;3.90;;
74415;SDS011;62850;42.428;25.618;2023-05-07T01:12:55;8.55;;;4.00;;
74415;SDS011;62850;42.428;25.618;2023-05-07T01:15:23;7.05;;;3.70;;
74415;SDS011;62850;42.428;25.618;2023-05-07T01:17:49;6.10;;;3.80;;
74415;SDS011;62850;42.428;25.618;2023-05-07T01:20:17;7.60;;;3.50;;
74415;SDS011;62850;42.428;25.618;2023-05-07T01:22:43;7.50;;;3.72;;
74415;SDS011;62850;42.428;25.618;2023-05-07T01:25:09;8.88;;;4.20;;
74415;SDS011;62850;42.428;25.618;2023-05-07T01:27:35;8.35;;;3.78;;
74415;SDS011;62850;42.428;25.618;2023-05-07T01:30:05;6.80;;;3.70;;
74415;SDS011;62850;42.428;25.618;2023-05-07T01:32:40;6.65;;;4.05;;
74415;SDS011;62850;42.428;25.618;2023-05-07T01:35:19;7.82;;;4.38;;
74415;SDS011;62850;42.428;25.618;2023-05-07T01:37:47;7.63;;;4.82;;
74415;SDS011;62850;42.428;25.618;2023-05-07T01:40:13;7.90;;;3.95;;
74415;SDS011;62850;42.428;25.618;2023-05-07T01:42:41;7.50;;;3.95;;
74415;SDS011;62850;42.428;25.618;2023-05-07T01:45:08;6.90;;;4.53;;
74415;SDS011;62850;42.428;25.618;2023-05-07T01:47:36;9.23;;;4.57;;
74415;SDS011;62850;42.428;25.618;2023-05-07T01:50:03;7.32;;;4.20;;
74415;SDS011;62850;42.428;25.618;2023-05-07T01:52:33;8.07;;;4.00;;
74415;SDS011;62850;42.428;25.618;2023-05-07T01:55:00;7.50;;;3.67;;
74415;SDS011;62850;42.428;25.618;2023-05-07T01:57:28;8.38;;;4.07;;
74415;SDS011;62850;42.428;25.618;2023-05-07T01:59:55;8.07;;;4.30;;
74415;SDS011;62850;42.428;25.618;2023-05-07T02:02:22;6.20;;;3.95;;
74415;SDS011;62850;42.428;25.618;2023-05-07T02:04:47;8.95;;;3.92;;
74415;SDS011;62850;42.428;25.618;2023-05-07T02:07:14;6.82;;;3.67;;
74415;SDS011;62850;42.428;25.618;2023-05-07T02:09:40;6.93;;;4.00;;
74415;SDS011;62850;42.428;25.618;2023-05-07T02:12:06;10.48;;;4.38;;
74415;SDS011;62850;42.428;25.618;2023-05-07T02:14:33;6.32;;;3.72;;
74415;SDS011;62850;42.428;25.618;2023-05-07T02:17:00;8.10;;;4.10;;
74415;SDS011;62850;42.428;25.618;2023-05-07T02:19:27;7.07;;;4.00;;
74415;SDS011;62850;42.428;25.618;2023-05-07T02:21:53;12.93;;;4.60;;
74415;SDS011;62850;42.428;25.618;2023-05-07T02:24:20;8.45;;;4.00;;
74415;SDS011;62850;42.428;25.618;2023-05-07T02:26:46;7.68;;;4.53;;
74415;SDS011;62850;42.428;25.618;2023-05-07T02:29:12;10.70;;;4.85;;
74415;SDS011;62850;42.428;25.618;2023-05-07T02:31:38;9.32;;;5.20;;
74415;SDS011;62850;42.428;25.618;2023-05-07T02:34:04;7.10;;;4.65;;
74415;SDS011;62850;42.428;25.618;2023-05-07T02:36:30;9.68;;;4.78;;
74415;SDS011;62850;42.428;25.618;2023-05-07T02:38:56;8.20;;;4.40;;
74415;SDS011;62850;42.428;25.618;2023-05-07T02:41:23;7.35;;;4.47;;
74415;SDS011;62850;42.428;25.618;2023-05-07T02:43:49;8.02;;;4.60;;
74415;SDS011;62850;42.428;25.618;2023-05-07T02:46:15;11.95;;;4.53;;
74415;SDS011;62850;42.428;25.618;2023-05-07T02:48:41;9.52;;;4.80;;
74415;SDS011;62850;42.428;25.618;2023-05-07T02:51:07;7.80;;;4.80;;
74415;SDS011;62850;42.428;25.618;2023-05-07T02:53:33;9.27;;;4.60;;
74415;SDS011;62850;42.428;25.618;2023-05-07T02:55:59;9.85;;;5.10;;
74415;SDS011;62850;42.428;25.618;2023-05-07T02:58:26;9.68;;;5.60;;
74415;SDS011;62850;42.428;25.618;2023-05-07T03:00:52;10.00;;;4.95;;
74415;SDS011;62850;42.428;25.618;2023-05-07T03:03:19;9.82;;;5.70;;
74415;SDS011;62850;42.428;25.618;2023-05-07T03:05:45;10.02;;;5.53;;
74415;SDS011;62850;42.428;25.618;2023-05-07T03:08:11;8.27;;;5.43;;
74415;SDS011;62850;42.428;25.618;2023-05-07T03:10:38;12.52;;;4.75;;
74415;SDS011;62850;42.428;25.618;2023-05-07T03:13:05;13.05;;;5.45;;
74415;SDS011;62850;42.428;25.618;2023-05-07T03:15:30;11.75;;;5.25;;
74415;SDS011;62850;42.428;25.618;2023-05-07T03:17:57;9.32;;;5.30;;
74415;SDS011;62850;42.428;25.618;2023-05-07T03:20:23;8.52;;;5.72;;
74415;SDS011;62850;42.428;25.618;2023-05-07T03:22:48;12.88;;;5.80;;
74415;SDS011;62850;42.428;25.618;2023-05-07T03:25:15;10.10;;;4.85;;
74415;SDS011;62850;42.428;25.618;2023-05-07T03:27:41;10.50;;;5.28;;
74415;SDS011;62850;42.428;25.618;2023-05-07T03:30:08;9.48;;;5.13;;
74415;SDS011;62850;42.428;25.618;2023-05-07T03:32:35;11.43;;;5.28;;
74415;SDS011;62850;42.428;25.618;2023-05-07T03:35:01;12.77;;;4.18;;
74415;SDS011;62850;42.428;25.618;2023-05-07T03:37:28;7.93;;;4.45;;
74415;SDS011;62850;42.428;25.618;2023-05-07T03:39:55;6.88;;;4.45;;
74415;SDS011;62850;42.428;25.618;2023-05-07T03:42:21;7.47;;;4.88;;
74415;SDS011;62850;42.428;25.618;2023-05-07T03:44:47;6.97;;;4.15;;
74415;SDS011;62850;42.428;25.618;2023-05-07T03:47:13;12.38;;;5.22;;
74415;SDS011;62850;42.428;25.618;2023-05-07T03:49:39;8.18;;;4.60;;
74415;SDS011;62850;42.428;25.618;2023-05-07T03:52:06;7.70;;;4.57;;
74415;SDS011;62850;42.428;25.618;2023-05-07T03:54:32;7.30;;;4.55;;
74415;SDS011;62850;42.428;25.618;2023-05-07T03:56:58;11.43;;;4.90;;
74415;SDS011;62850;42.428;25.618;2023-05-07T03:59:24;8.10;;;4.68;;
74415;SDS011;62850;42.428;25.618;2023-05-07T04:01:50;6.60;;;4.35;;
74415;SDS011;62850;42.428;25.618;2023-05-07T04:04:17;7.93;;;4.65;;
74415;SDS011;62850;42.428;25.618;2023-05-07T04:06:43;9.35;;;4.38;;
74415;SDS011;62850;42.428;25.618;2023-05-07T04:09:09;6.60;;;4.53;;
74415;SDS011;62850;42.428;25.618;2023-05-07T04:11:38;7.70;;;4.35;;
74415;SDS011;62850;42.428;25.618;2023-05-07T04:14:05;10.65;;;4.80;;
74415;SDS011;62850;42.428;25.618;2023-05-07T04:16:31;9.52;;;4.70;;
74415;SDS011;62850;42.428;25.618;2023-05-07T04:19:00;11.10;;;4.40;;
74415;SDS011;62850;42.428;25.618;2023-05-07T04:21:26;9.65;;;4.28;;
74415;SDS011;62850;42.428;25.618;2023-05-07T04:23:52;7.55;;;3.85;;
74415;SDS011;62850;42.428;25.618;2023-05-07T04:26:18;7.70;;;4.22;;
74415;SDS011;62850;42.428;25.618;2023-05-07T04:28:44;12.43;;;4.88;;
74415;SDS011;62850;42.428;25.618;2023-05-07T04:31:10;7.57;;;4.07;;
74415;SDS011;62850;42.428;25.618;2023-05-07T04:33:35;8.95;;;4.10;;
74415;SDS011;62850;42.428;25.618;2023-05-07T04:36:02;6.82;;;4.25;;
74415;SDS011;62850;42.428;25.618;2023-05-07T04:38:29;8.40;;;4.03;;
74415;SDS011;62850;42.428;25.618;2023-05-07T04:40:56;7.22;;;3.65;;
74415;SDS011;62850;42.428;25.618;2023-05-07T04:43:22;6.28;;;4.05;;
74415;SDS011;62850;42.428;25.618;2023-05-07T04:45:49;15.65;;;5.22;;
74415;SDS011;62850;42.428;25.618;2023-05-07T04:48:15;8.85;;;4.35;;
74415;SDS011;62850;42.428;25.618;2023-05-07T04:50:44;9.80;;;5.18;;
74415;SDS011;62850;42.428;25.618;2023-05-07T04:53:12;7.70;;;4.45;;
74415;SDS011;62850;42.428;25.618;2023-05-07T04:55:38;9.25;;;4.65;;
74415;SDS011;62850;42.428;25.618;2023-05-07T04:58:04;7.90;;;4.80;;
74415;SDS011;62850;42.428;25.618;2023-05-07T05:00:30;7.55;;;4.75;;
74415;SDS011;62850;42.428;25.618;2023-05-07T05:02:56;11.38;;;5.00;;
74415;SDS011;62850;42.428;25.618;2023-05-07T05:05:22;12.82;;;5.10;;
74415;SDS011;62850;42.428;25.618;2023-05-07T05:07:47;11.40;;;4.88;;
74415;SDS011;62850;42.428;25.618;2023-05-07T05:10:14;12.20;;;4.63;;
74415;SDS011;62850;42.428;25.618;2023-05-07T05:12:41;7.40;;;4.18;;
74415;SDS011;62850;42.428;25.618;2023-05-07T05:15:07;6.85;;;3.50;;
74415;SDS011;62850;42.428;25.618;2023-05-07T05:17:34;6.20;;;4.07;;
74415;SDS011;62850;42.428;25.618;2023-05-07T05:20:00;6.38;;;3.90;;
74415;SDS011;62850;42.428;25.618;2023-05-07T05:22:28;6.45;;;3.65;;
74415;SDS011;62850;42.428;25.618;2023-05-07T05:24:56;7.85;;;3.85;;
74415;SDS011;62850;42.428;25.618;2023-05-07T05:27:23;7.80;;;4.35;;
74415;SDS011;62850;42.428;25.618;2023-05-07T05:29:49;10.57;;;4.93;;
74415;SDS011;62850;42.428;25.618;2023-05-07T05:32:16;8.20;;;4.63;;
74415;SDS011;62850;42.428;25.618;2023-05-07T05:34:42;9.85;;;4.43;;
74415;SDS011;62850;42.428;25.618;2023-05-07T05:37:08;8.10;;;4.13;;
74415;SDS011;62850;42.428;25.618;2023-05-07T05:39:35;8.95;;;4.70;;
74415;SDS011;62850;42.428;25.618;2023-05-07T05:42:02;8.43;;;4.20;;
74415;SDS011;62850;42.428;25.618;2023-05-07T05:44:29;6.43;;;3.53;;
74415;SDS011;62850;42.428;25.618;2023-05-07T05:46:55;8.25;;;3.85;;
74415;SDS011;62850;42.428;25.618;2023-05-07T05:49:24;5.35;;;3.22;;
74415;SDS011;62850;42.428;25.618;2023-05-07T05:51:50;7.38;;;3.25;;
74415;SDS011;62850;42.428;25.618;2023-05-07T05:54:17;6.15;;;2.70;;
74415;SDS011;62850;42.428;25.618;2023-05-07T05:56:43;5.45;;;2.75;;
74415;SDS011;62850;42.428;25.618;2023-05-07T05:59:10;6.55;;;3.25;;
74415;SDS011;62850;42.428;25.618;2023-05-07T06:01:36;7.80;;;3.88;;
74415;SDS011;62850;42.428;25.618;2023-05-07T06:04:02;8.70;;;3.33;;
74415;SDS011;62850;42.428;25.618;2023-05-07T06:06:28;11.95;;;3.80;;
74415;SDS011;62850;42.428;25.618;2023-05-07T06:08:53;6.45;;;3.40;;
74415;SDS011;62850;42.428;25.618;2023-05-07T06:11:20;7.57;;;3.50;;
74415;SDS011;62850;42.428;25.618;2023-05-07T06:13:47;10.38;;;3.50;;
74415;SDS011;62850;42.428;25.618;2023-05-07T06:16:13;6.97;;;3.90;;
74415;SDS011;62850;42.428;25.618;2023-05-07T06:18:40;8.48;;;3.15;;
74415;SDS011;62850;42.428;25.618;2023-05-07T06:21:06;6.40;;;3.50;;
74415;SDS011;62850;42.428;25.618;2023-05-07T06:23:31;8.00;;;3.67;;
74415;SDS011;62850;42.428;25.618;2023-05-07T06:25:57;6.35;;;3.30;;
74415;SDS011;62850;42.428;25.618;2023-05-07T06:28:24;6.18;;;3.45;;
74415;SDS011;62850;42.428;25.618;2023-05-07T06:30:49;5.68;;;3.20;;
74415;SDS011;62850;42.428;25.618;2023-05-07T06:33:16;5.82;;;3.15;;
74415;SDS011;62850;42.428;25.618;2023-05-07T06:35:42;6.80;;;3.00;;
74415;SDS011;62850;42.428;25.618;2023-05-07T06:38:08;7.88;;;3.65;;
74415;SDS011;62850;42.428;25.618;2023-05-07T06:40:35;4.60;;;2.75;;
74415;SDS011;62850;42.428;25.618;2023-05-07T06:43:01;8.27;;;2.85;;
74415;SDS011;62850;42.428;25.618;2023-05-07T06:45:29;6.22;;;2.58;;
74415;SDS011;62850;42.428;25.618;2023-05-07T06:47:55;7.05;;;3.60;;
74415;SDS011;62850;42.428;25.618;2023-05-07T06:50:21;7.88;;;3.30;;
74415;SDS011;62850;42.428;25.618;2023-05-07T06:52:47;6.43;;;2.85;;
74415;SDS011;62850;42.428;25.618;2023-05-07T06:55:13;5.75;;;2.70;;
74415;SDS011;62850;42.428;25.618;2023-05-07T06:57:39;9.27;;;2.58;;
74415;SDS011;62850;42.428;25.618;2023-05-07T07:00:05;5.97;;;2.47;;
74415;SDS011;62850;42.428;25.618;2023-05-07T07:02:34;6.00;;;2.72;;
74415;SDS011;62850;42.428;25.618;2023-05-07T07:05:01;5.45;;;2.70;;
74415;SDS011;62850;42.428;25.618;2023-05-07T07:07:28;5.32;;;2.72;;
74415;SDS011;62850;42.428;25.618;2023-05-07T07:09:54;6.45;;;2.38;;
74415;SDS011;62850;42.428;25.618;2023-05-07T07:12:21;4.90;;;2.35;;
74415;SDS011;62850;42.428;25.618;2023-05-07T07:14:47;5.70;;;2.15;;
74415;SDS011;62850;42.428;25.618;2023-05-07T07:17:13;4.28;;;2.17;;
74415;SDS011;62850;42.428;25.618;2023-05-07T07:19:39;6.28;;;2.35;;
74415;SDS011;62850;42.428;25.618;2023-05-07T07:22:05;5.47;;;2.17;;
74415;SDS011;62850;42.428;25.618;2023-05-07T07:24:33;6.25;;;2.13;;
74415;SDS011;62850;42.428;25.618;2023-05-07T07:27:00;6.40;;;2.58;;
74415;SDS011;62850;42.428;25.618;2023-05-07T07:29:26;3.67;;;1.90;;
74415;SDS011;62850;42.428;25.618;2023-05-07T07:31:53;4.57;;;2.30;;
74415;SDS011;62850;42.428;25.618;2023-05-07T07:34:19;5.45;;;1.90;;
74415;SDS011;62850;42.428;25.618;2023-05-07T07:36:46;3.85;;;2.10;;
74415;SDS011;62850;42.428;25.618;2023-05-07T07:39:13;7.03;;;2.00;;
74415;SDS011;62850;42.428;25.618;2023-05-07T07:41:39;5.53;;;2.15;;
74415;SDS011;62850;42.428;25.618;2023-05-07T07:44:05;4.68;;;2.35;;
74415;SDS011;62850;42.428;25.618;2023-05-07T07:46:33;5.22;;;2.25;;
74415;SDS011;62850;42.428;25.618;2023-05-07T07:49:00;4.43;;;2.08;;
74415;SDS011;62850;42.428;25.618;2023-05-07T07:51:27;6.50;;;2.47;;
74415;SDS011;62850;42.428;25.618;2023-05-07T07:53:53;4.85;;;2.10;;
74415;SDS011;62850;42.428;25.618;2023-05-07T07:56:19;3.95;;;1.80;;
74415;SDS011;62850;42.428;25.618;2023-05-07T07:58:46;4.80;;;1.90;;
74415;SDS011;62850;42.428;25.618;2023-05-07T08:01:11;5.70;;;1.98;;
74415;SDS011;62850;42.428;25.618;2023-05-07T08:03:38;3.95;;;2.00;;
74415;SDS011;62850;42.428;25.618;2023-05-07T08:06:04;15.32;;;2.38;;
74415;SDS011;62850;42.428;25.618;2023-05-07T08:08:31;4.20;;;1.95;;
74415;SDS011;62850;42.428;25.618;2023-05-07T08:10:58;14.60;;;8.18;;
74415;SDS011;62850;42.428;25.618;2023-05-07T08:13:24;9.32;;;3.35;;
74415;SDS011;62850;42.428;25.618;2023-05-07T08:15:50;4.78;;;2.38;;
74415;SDS011;62850;42.428;25.618;2023-05-07T08:18:16;4.30;;;2.15;;
74415;SDS011;62850;42.428;25.618;2023-05-07T08:20:43;3.70;;;1.73;;
74415;SDS011;62850;42.428;25.618;2023-05-07T08:23:09;7.20;;;2.20;;
74415;SDS011;62850;42.428;25.618;2023-05-07T08:25:34;7.20;;;3.15;;
74415;SDS011;62850;42.428;25.618;2023-05-07T08:28:00;4.32;;;1.55;;
74415;SDS011;62850;42.428;25.618;2023-05-07T08:30:26;5.55;;;1.83;;
74415;SDS011;62850;42.428;25.618;2023-05-07T08:32:52;5.63;;;1.63;;
74415;SDS011;62850;42.428;25.618;2023-05-07T08:35:18;5.40;;;2.10;;
74415;SDS011;62850;42.428;25.618;2023-05-07T08:37:44;5.38;;;2.08;;
74415;SDS011;62850;42.428;25.618;2023-05-07T08:40:11;4.45;;;2.00;;
74415;SDS011;62850;42.428;25.618;2023-05-07T08:42:37;3.10;;;1.58;;
74415;SDS011;62850;42.428;25.618;2023-05-07T08:45:04;5.22;;;2.45;;
74415;SDS011;62850;42.428;25.618;2023-05-07T08:47:46;6.60;;;2.30;;
74415;SDS011;62850;42.428;25.618;2023-05-07T08:50:15;4.15;;;1.60;;
74415;SDS011;62850;42.428;25.618;2023-05-07T08:52:43;5.55;;;1.70;;
74415;SDS011;62850;42.428;25.618;2023-05-07T08:55:10;5.25;;;1.85;;
74415;SDS011;62850;42.428;25.618;2023-05-07T08:57:38;4.72;;;1.90;;
74415;SDS011;62850;42.428;25.618;2023-05-07T09:00:04;6.22;;;2.55;;
74415;SDS011;62850;42.428;25.618;2023-05-07T09:02:33;4.82;;;2.25;;
74415;SDS011;62850;42.428;25.618;2023-05-07T09:05:00;5.82;;;2.67;;
74415;SDS011;62850;42.428;25.618;2023-05-07T09:07:26;5.85;;;2.15;;
74415;SDS011;62850;42.428;25.618;2023-05-07T09:09:55;4.60;;;1.83;;
74415;SDS011;62850;42.428;25.618;2023-05-07T09:12:22;4.97;;;1.80;;
74415;SDS011;62850;42.428;25.618;2023-05-07T09:14:49;4.78;;;1.80;;
74415;SDS011;62850;42.428;25.618;2023-05-07T09:17:16;5.28;;;2.22;;
74415;SDS011;62850;42.428;25.618;2023-05-07T09:19:43;6.60;;;1.92;;
74415;SDS011;62850;42.428;25.618;2023-05-07T09:22:10;6.35;;;2.00;;
74415;SDS011;62850;42.428;25.618;2023-05-07T09:24:37;4.80;;;1.75;;
74415;SDS011;62850;42.428;25.618;2023-05-07T09:27:03;4.55;;;1.88;;
74415;SDS011;62850;42.428;25.618;2023-05-07T09:29:30;5.78;;;1.90;;
74415;SDS011;62850;42.428;25.618;2023-05-07T09:32:04;4.40;;;1.80;;
74415;SDS011;62850;42.428;25.618;2023-05-07T09:34:31;5.38;;;2.00;;
74415;SDS011;62850;42.428;25.618;2023-05-07T09:37:00;3.85;;;1.90;;
74415;SDS011;62850;42.428;25.618;2023-05-07T09:39:38;4.50;;;2.00;;
74415;SDS011;62850;42.428;25.618;2023-05-07T09:42:07;4.90;;;1.70;;
74415;SDS011;62850;42.428;25.618;2023-05-07T09:44:34;6.90;;;3.22;;
74415;SDS011;62850;42.428;25.618;2023-05-07T09:47:01;3.88;;;1.80;;
74415;SDS011;62850;42.428;25.618;2023-05-07T09:49:30;5.75;;;1.80;;
74415;SDS011;62850;42.428;25.618;2023-05-07T09:52:00;3.45;;;1.67;;
74415;SDS011;62850;42.428;25.618;2023-05-07T09:54:27;5.55;;;1.67;;
74415;SDS011;62850;42.428;25.618;2023-05-07T09:56:55;5.38;;;2.05;;
74415;SDS011;62850;42.428;25.618;2023-05-07T09:59:22;4.00;;;1.63;;
74415;SDS011;62850;42.428;25.618;2023-05-07T10:01:49;4.85;;;1.80;;
74415;SDS011;62850;42.428;25.618;2023-05-07T10:04:21;6.43;;;2.08;;
74415;SDS011;62850;42.428;25.618;2023-05-07T10:06:49;3.42;;;1.40;;
74415;SDS011;62850;42.428;25.618;2023-05-07T10:09:15;5.05;;;1.77;;
74415;SDS011;62850;42.428;25.618;2023-05-07T10:11:42;6.03;;;2.15;;
74415;SDS011;62850;42.428;25.618;2023-05-07T10:14:08;4.50;;;1.90;;
74415;SDS011;62850;42.428;25.618;2023-05-07T10:16:35;4.68;;;1.80;;
74415;SDS011;62850;42.428;25.618;2023-05-07T10:19:03;4.90;;;1.55;;
74415;SDS011;62850;42.428;25.618;2023-05-07T10:21:30;3.28;;;1.55;;
74415;SDS011;62850;42.428;25.618;2023-05-07T10:24:00;4.13;;;1.73;;
74415;SDS011;62850;42.428;25.618;2023-05-07T10:26:39;3.75;;;1.92;;
74415;SDS011;62850;42.428;25.618;2023-05-07T10:29:10;5.50;;;1.70;;
74415;SDS011;62850;42.428;25.618;2023-05-07T10:34:45;5.97;;;1.90;;
74415;SDS011;62850;42.428;25.618;2023-05-07T10:37:13;4.18;;;2.38;;
74415;SDS011;62850;42.428;25.618;2023-05-07T10:39:41;3.92;;;2.10;;
74415;SDS011;62850;42.428;25.618;2023-05-07T10:42:10;6.32;;;2.38;;
74415;SDS011;62850;42.428;25.618;2023-05-07T10:44:37;5.75;;;1.80;;
74415;SDS011;62850;42.428;25.618;2023-05-07T10:47:10;5.88;;;1.90;;
74415;SDS011;62850;42.428;25.618;2023-05-07T10:49:37;7.35;;;2.00;;
74415;SDS011;62850;42.428;25.618;2023-05-07T10:52:18;5.22;;;2.08;;
74415;SDS011;62850;42.428;25.618;2023-05-07T10:54:46;6.70;;;1.80;;
74415;SDS011;62850;42.428;25.618;2023-05-07T11:05:28;3.53;;;1.70;;
74415;SDS011;62850;42.428;25.618;2023-05-07T11:07:55;3.63;;;1.65;;
74415;SDS011;62850;42.428;25.618;2023-05-07T11:10:22;4.65;;;2.50;;
74415;SDS011;62850;42.428;25.618;2023-05-07T11:12:51;3.58;;;1.83;;
74415;SDS011;62850;42.428;25.618;2023-05-07T11:15:34;5.68;;;1.88;;
74415;SDS011;62850;42.428;25.618;2023-05-07T11:18:02;5.30;;;2.03;;
74415;SDS011;62850;42.428;25.618;2023-05-07T11:20:48;3.97;;;1.73;;
74415;SDS011;62850;42.428;25.618;2023-05-07T11:25:59;5.03;;;1.80;;
74415;SDS011;62850;42.428;25.618;2023-05-07T11:28:29;8.15;;;1.70;;
74415;SDS011;62850;42.428;25.618;2023-05-07T11:33:22;6.00;;;2.00;;
74415;SDS011;62850;42.428;25.618;2023-05-07T11:35:50;5.18;;;2.13;;
74415;SDS011;62850;42.428;25.618;2023-05-07T11:38:18;4.72;;;2.00;;
74415;SDS011;62850;42.428;25.618;2023-05-07T11:40:51;5.75;;;1.80;;
74415;SDS011;62850;42.428;25.618;2023-05-07T11:43:18;6.53;;;1.90;;
74415;SDS011;62850;42.428;25.618;2023-05-07T11:45:44;43.22;;;9.60;;
74415;SDS011;62850;42.428;25.618;2023-05-07T11:48:14;6.50;;;2.13;;
74415;SDS011;62850;42.428;25.618;2023-05-07T11:50:53;4.75;;;1.80;;
74415;SDS011;62850;42.428;25.618;2023-05-07T11:53:26;4.15;;;1.85;;
74415;SDS011;62850;42.428;25.618;2023-05-07T11:55:53;4.00;;;2.00;;
74415;SDS011;62850;42.428;25.618;2023-05-07T11:58:23;4.97;;;1.65;;
74415;SDS011;62850;42.428;25.618;2023-05-07T12:00:53;3.25;;;1.70;;
74415;SDS011;62850;42.428;25.618;2023-05-07T12:03:20;6.05;;;2.22;;
74415;SDS011;62850;42.428;25.618;2023-05-07T12:05:46;3.35;;;1.80;;
74415;SDS011;62850;42.428;25.618;2023-05-07T12:08:16;8.13;;;2.45;;
74415;SDS011;62850;42.428;25.618;2023-05-07T12:15:54;5.90;;;2.22;;
74415;SDS011;62850;42.428;25.618;2023-05-07T12:18:22;3.90;;;1.60;;
74415;SDS011;62850;42.428;25.618;2023-05-07T12:20:49;3.08;;;1.58;;
74415;SDS011;62850;42.428;25.618;2023-05-07T12:23:16;4.38;;;1.70;;
74415;SDS011;62850;42.428;25.618;2023-05-07T12:25:42;4.70;;;1.88;;
74415;SDS011;62850;42.428;25.618;2023-05-07T12:28:13;8.05;;;2.15;;
74415;SDS011;62850;42.428;25.618;2023-05-07T12:30:43;4.45;;;1.75;;
74415;SDS011;62850;42.428;25.618;2023-05-07T12:33:10;4.32;;;1.80;;
74415;SDS011;62850;42.428;25.618;2023-05-07T12:35:40;4.18;;;1.90;;
74415;SDS011;62850;42.428;25.618;2023-05-07T12:38:07;6.63;;;1.88;;
74415;SDS011;62850;42.428;25.618;2023-05-07T12:40:43;4.95;;;1.73;;
74415;SDS011;62850;42.428;25.618;2023-05-07T12:43:28;3.83;;;1.70;;
74415;SDS011;62850;42.428;25.618;2023-05-07T12:45:54;4.63;;;1.77;;
74415;SDS011;62850;42.428;25.618;2023-05-07T12:48:21;4.25;;;1.70;;
74415;SDS011;62850;42.428;25.618;2023-05-07T12:50:52;5.22;;;1.85;;
74415;SDS011;62850;42.428;25.618;2023-05-07T12:55:47;6.63;;;1.70;;
74415;SDS011;62850;42.428;25.618;2023-05-07T12:58:18;5.18;;;1.77;;
74415;SDS011;62850;42.428;25.618;2023-05-07T13:00:47;4.00;;;1.88;;
74415;SDS011;62850;42.428;25.618;2023-05-07T14:59:40;4.95;;;1.80;;
74415;SDS011;62850;42.428;25.618;2023-05-07T15:02:06;4.55;;;1.92;;
74415;SDS011;62850;42.428;25.618;2023-05-07T15:04:32;6.65;;;2.33;;
74415;SDS011;62850;42.428;25.618;2023-05-07T15:06:58;4.50;;;1.83;;
74415;SDS011;62850;42.428;25.618;2023-05-07T15:09:24;4.18;;;1.88;;
74415;SDS011;62850;42.428;25.618;2023-05-07T15:11:49;3.30;;;1.50;;
74415;SDS011;62850;42.428;25.618;2023-05-07T15:14:15;5.10;;;1.80;;
74415;SDS011;62850;42.428;25.618;2023-05-07T15:16:40;3.83;;;1.90;;
74415;SDS011;62850;42.428;25.618;2023-05-07T15:19:06;5.07;;;1.92;;
74415;SDS011;62850;42.428;25.618;2023-05-07T15:21:31;7.47;;;2.20;;
74415;SDS011;62850;42.428;25.618;2023-05-07T15:23:59;4.90;;;2.10;;
74415;SDS011;62850;42.428;25.618;2023-05-07T15:26:25;4.32;;;1.92;;
74415;SDS011;62850;42.428;25.618;2023-05-07T15:28:51;9.45;;;2.20;;
74415;SDS011;62850;42.428;25.618;2023-05-07T15:31:17;3.85;;;1.70;;
74415;SDS011;62850;42.428;25.618;2023-05-07T15:33:42;3.92;;;2.00;;
74415;SDS011;62850;42.428;25.618;2023-05-07T15:36:09;6.35;;;2.25;;
74415;SDS011;62850;42.428;25.618;2023-05-07T15:38:35;6.18;;;2.17;;
74415;SDS011;62850;42.428;25.618;2023-05-07T15:41:01;4.20;;;2.17;;
74415;SDS011;62850;42.428;25.618;2023-05-07T15:43:26;8.93;;;3.58;;
74415;SDS011;62850;42.428;25.618;2023-05-07T15:45:52;13.32;;;5.05;;
74415;SDS011;62850;42.428;25.618;2023-05-07T15:48:18;15.55;;;6.13;;
74415;SDS011;62850;42.428;25.618;2023-05-07T15:50:44;39.58;;;16.05;;
74415;SDS011;62850;42.428;25.618;2023-05-07T15:53:10;26.52;;;9.27;;
74415;SDS011;62850;42.428;25.618;2023-05-07T15:55:37;15.45;;;5.13;;
74415;SDS011;62850;42.428;25.618;2023-05-07T15:58:03;42.90;;;16.00;;
74415;SDS011;62850;42.428;25.618;2023-05-07T16:00:30;34.00;;;13.20;;
74415;SDS011;62850;42.428;25.618;2023-05-07T16:02:56;27.55;;;11.40;;
74415;SDS011;62850;42.428;25.618;2023-05-07T16:05:22;30.08;;;13.30;;
74415;SDS011;62850;42.428;25.618;2023-05-07T16:07:47;20.40;;;8.43;;
74415;SDS011;62850;42.428;25.618;2023-05-07T16:10:13;20.02;;;8.93;;
74415;SDS011;62850;42.428;25.618;2023-05-07T16:12:39;30.05;;;12.02;;
74415;SDS011;62850;42.428;25.618;2023-05-07T16:15:05;25.88;;;10.10;;
74415;SDS011;62850;42.428;25.618;2023-05-07T16:17:30;35.05;;;14.75;;
74415;SDS011;62850;42.428;25.618;2023-05-07T16:19:56;32.35;;;12.88;;
74415;SDS011;62850;42.428;25.618;2023-05-07T16:22:23;20.63;;;8.25;;
74415;SDS011;62850;42.428;25.618;2023-05-07T16:24:49;29.55;;;11.30;;
74415;SDS011;62850;42.428;25.618;2023-05-07T16:27:15;19.05;;;7.53;;
74415;SDS011;62850;42.428;25.618;2023-05-07T16:29:40;32.40;;;11.80;;
74415;SDS011;62850;42.428;25.618;2023-05-07T16:32:06;16.33;;;7.40;;
74415;SDS011;62850;42.428;25.618;2023-05-07T16:34:31;16.55;;;6.60;;
74415;SDS011;62850;42.428;25.618;2023-05-07T16:36:57;19.45;;;7.82;;
74415;SDS011;62850;42.428;25.618;2023-05-07T16:39:22;14.50;;;5.40;;
74415;SDS011;62850;42.428;25.618;2023-05-07T16:41:48;12.50;;;5.07;;
74415;SDS011;62850;42.428;25.618;2023-05-07T16:44:14;16.40;;;6.63;;
74415;SDS011;62850;42.428;25.618;2023-05-07T16:46:40;10.38;;;4.97;;
74415;SDS011;62850;42.428;25.618;2023-05-07T16:49:06;8.25;;;3.25;;
74415;SDS011;62850;42.428;25.618;2023-05-07T16:51:34;7.28;;;3.35;;